createdAt,value
2022-07-30T00:00:13.322Z,65.84
2022-07-30T00:02:52.623Z,65.82
2022-07-30T00:05:20.598Z,66.03
2022-07-30T00:07:48.607Z,66.50
2022-07-30T00:10:16.688Z,67.08
2022-07-30T00:12:44.608Z,66.94
2022-07-30T00:15:13.933Z,67.10
2022-07-30T00:17:41.954Z,67.20
2022-07-30T00:20:14.815Z,67.01
2022-07-30T00:22:42.765Z,67.54
2022-07-30T00:25:11.049Z,67.66
2022-07-30T00:27:39.014Z,67.99
2022-07-30T00:30:07.913Z,68.31
2022-07-30T00:32:37.273Z,68.51
2022-07-30T00:35:06.011Z,69.23
2022-07-30T00:37:34.042Z,69.79
2022-07-30T00:40:02.091Z,69.74
2022-07-30T00:42:39.498Z,69.91
2022-07-30T00:45:08.984Z,69.80
2022-07-30T00:47:39.183Z,69.54
2022-07-30T00:50:11.078Z,69.14
2022-07-30T00:52:39.739Z,69.03
2022-07-30T00:55:10.136Z,69.31
2022-07-30T00:57:39.223Z,69.54
2022-07-30T01:00:10.203Z,69.45
2022-07-30T01:02:39.563Z,69.81
2022-07-30T01:05:08.743Z,69.86
2022-07-30T01:07:36.954Z,70.45
2022-07-30T01:10:06.073Z,71.07
2022-07-30T01:12:34.495Z,71.36
2022-07-30T01:15:05.851Z,70.71
2022-07-30T01:17:33.888Z,70.78
2022-07-30T01:20:06.431Z,70.92
2022-07-30T01:22:52.383Z,70.83
2022-07-30T01:25:29.584Z,70.51
2022-07-30T01:28:03.686Z,70.40
2022-07-30T01:30:35.045Z,70.63
2022-07-30T01:33:05.505Z,70.75
2022-07-30T01:35:35.446Z,70.50
2022-07-30T01:38:06.378Z,69.93
2022-07-30T01:40:36.343Z,69.55
2022-07-30T01:43:08.941Z,69.62
2022-07-30T01:45:42.392Z,69.90
2022-07-30T01:48:15.951Z,70.32
2022-07-30T01:50:46.484Z,70.57
2022-07-30T01:53:17.874Z,70.54
2022-07-30T01:55:47.576Z,70.32
2022-07-30T01:58:20.485Z,70.45
2022-07-30T02:00:55.896Z,70.45
2022-07-30T02:03:24.987Z,70.48
2022-07-30T02:05:58.582Z,70.62
2022-07-30T02:08:36.154Z,70.39
2022-07-30T02:11:09.606Z,70.07
2022-07-30T02:13:45.394Z,69.91
2022-07-30T02:16:17.545Z,69.95
2022-07-30T02:18:58.433Z,70.49
2022-07-30T02:21:30.529Z,70.42
2022-07-30T02:24:06.406Z,70.61
2022-07-30T02:26:37.892Z,70.78
2022-07-30T02:29:11.465Z,71.34
2022-07-30T02:31:42.865Z,71.52
2022-07-30T02:34:14.202Z,71.92
2022-07-30T02:36:44.248Z,72.11
2022-07-30T02:39:14.618Z,72.61
2022-07-30T02:41:49.539Z,72.77
2022-07-30T02:44:21.709Z,73.15
2022-07-30T02:46:52.366Z,73.17
2022-07-30T02:49:32.278Z,73.49
2022-07-30T02:52:01.555Z,73.39
2022-07-30T02:54:32.491Z,73.58
2022-07-30T02:57:02.360Z,73.51
2022-07-30T02:59:34.510Z,73.47
2022-07-30T03:02:05.421Z,72.92
2022-07-30T03:04:34.794Z,72.75
2022-07-30T03:07:08.138Z,72.95
2022-07-30T03:09:51.445Z,73.10
2022-07-30T03:12:22.786Z,73.10
2022-07-30T03:14:54.378Z,72.82
2022-07-30T03:17:25.023Z,72.61
2022-07-30T03:19:55.535Z,71.91
2022-07-30T03:22:28.925Z,71.43
2022-07-30T03:25:03.713Z,70.57
2022-07-30T03:27:32.218Z,69.78
2022-07-30T03:30:03.431Z,69.19
2022-07-30T03:32:32.624Z,69.00
2022-07-30T03:35:05.985Z,68.92
2022-07-30T03:37:36.921Z,68.62
2022-07-30T03:40:07.042Z,68.51
2022-07-30T03:42:36.619Z,68.28
2022-07-30T03:45:08.549Z,67.98
2022-07-30T03:47:39.786Z,67.67
2022-07-30T03:50:08.413Z,67.58
2022-07-30T03:52:41.277Z,67.30
2022-07-30T03:55:13.339Z,67.48
2022-07-30T03:57:47.514Z,67.70
2022-07-30T04:00:18.271Z,67.89
2022-07-30T04:02:51.232Z,68.26
2022-07-30T04:05:37.687Z,67.99
2022-07-30T04:08:11.610Z,67.84
2022-07-30T04:10:40.777Z,67.79
2022-07-30T04:13:14.746Z,67.42
2022-07-30T04:16:40.343Z,67.46
2022-07-30T04:18:39.842Z,67.35
2022-07-30T04:21:17.031Z,67.36
2022-07-30T04:24:04.350Z,66.92
2022-07-30T04:26:37.496Z,66.87
2022-07-30T04:29:08.787Z,66.63
2022-07-30T04:31:40.954Z,66.32
2022-07-30T04:34:32.449Z,66.17
2022-07-30T04:37:00.990Z,66.24
2022-07-30T04:39:30.626Z,65.83
2022-07-30T04:41:58.618Z,65.91
2022-07-30T04:44:36.304Z,65.57
2022-07-30T04:47:28.696Z,65.71
2022-07-30T04:50:39.538Z,65.85
2022-07-30T04:53:10.859Z,66.22
2022-07-30T04:55:47.932Z,66.70
2022-07-30T04:58:19.716Z,67.00
2022-07-30T05:00:48.637Z,67.12
2022-07-30T05:03:23.107Z,67.28
2022-07-30T05:05:57.064Z,67.62
2022-07-30T05:08:28.140Z,68.09
2022-07-30T05:10:57.057Z,68.52
2022-07-30T05:13:34.178Z,69.05
2022-07-30T05:16:03.670Z,69.04
2022-07-30T05:18:33.516Z,68.51
2022-07-30T05:21:01.529Z,68.50
2022-07-30T05:23:36.777Z,68.32
2022-07-30T05:26:14.242Z,68.13
2022-07-30T05:28:49.468Z,67.58
2022-07-30T05:31:25.880Z,67.05
2022-07-30T05:34:03.535Z,66.12
2022-07-30T05:36:39.320Z,65.64
2022-07-30T05:39:07.414Z,64.79
2022-07-30T05:41:40.626Z,64.80
2022-07-30T05:44:22.141Z,64.39
2022-07-30T05:46:52.295Z,64.78
2022-07-30T05:49:21.916Z,65.20
2022-07-30T05:51:50.603Z,65.29
2022-07-30T05:54:19.429Z,65.25
2022-07-30T05:56:47.323Z,65.06
2022-07-30T05:59:19.015Z,65.12
2022-07-30T06:02:09.963Z,64.89
2022-07-30T06:04:57.266Z,64.92
2022-07-30T06:07:25.879Z,64.79
2022-07-30T06:10:00.001Z,65.17
2022-07-30T06:12:29.042Z,65.12
2022-07-30T06:14:57.428Z,65.25
2022-07-30T06:17:30.564Z,65.68
2022-07-30T06:20:08.977Z,66.28
2022-07-30T06:22:49.594Z,66.26
2022-07-30T06:25:25.190Z,66.82
2022-07-30T06:27:53.187Z,67.36
2022-07-30T06:30:21.173Z,67.61
2022-07-30T06:32:59.407Z,68.71
2022-07-30T06:35:28.728Z,68.49
2022-07-30T06:38:06.200Z,68.90
2022-07-30T06:40:43.485Z,69.71
2022-07-30T06:43:19.498Z,69.82
2022-07-30T06:45:58.279Z,70.30
2022-07-30T06:48:31.761Z,70.65
2022-07-30T06:51:03.537Z,70.57
2022-07-30T06:53:31.614Z,70.22
2022-07-30T06:56:11.378Z,70.02
2022-07-30T06:58:48.848Z,70.28
2022-07-30T07:01:35.311Z,70.26
2022-07-30T07:04:03.794Z,70.80
2022-07-30T07:06:33.573Z,71.17
2022-07-30T07:09:02.134Z,71.04
2022-07-30T07:11:37.384Z,71.64
2022-07-30T07:14:09.842Z,71.49
2022-07-30T07:16:38.266Z,71.05
2022-07-30T07:19:59.470Z,70.99
2022-07-30T07:22:18.771Z,70.76
2022-07-30T07:24:46.863Z,70.96
2022-07-30T07:27:21.044Z,70.81
2022-07-30T07:30:04.701Z,70.42
2022-07-30T07:32:36.992Z,70.31
2022-07-30T07:35:06.620Z,70.52
2022-07-30T07:37:40.409Z,70.96
2022-07-30T07:40:10.615Z,71.12
2022-07-30T07:42:42.504Z,70.92
2022-07-30T07:45:11.673Z,70.69
2022-07-30T07:47:53.304Z,70.87
2022-07-30T07:50:57.109Z,70.82
2022-07-30T07:53:30.752Z,70.95
2022-07-30T07:55:59.746Z,71.16
2022-07-30T07:58:28.063Z,71.32
2022-07-30T08:01:00.369Z,71.39
2022-07-30T08:03:48.378Z,71.79
2022-07-30T08:06:36.628Z,72.56
2022-07-30T08:09:44.355Z,73.11
2022-07-30T08:12:31.603Z,74.09
2022-07-30T08:15:21.785Z,74.64
2022-07-30T08:18:13.141Z,74.39
2022-07-30T08:20:55.268Z,73.87
2022-07-30T08:23:28.868Z,73.43
2022-07-30T08:25:59.592Z,73.81
2022-07-30T08:28:36.019Z,74.24
2022-07-30T08:31:06.383Z,74.64
2022-07-30T08:33:34.417Z,74.24
2022-07-30T08:36:09.095Z,74.43
2022-07-30T08:38:38.884Z,74.26
2022-07-30T08:41:09.213Z,74.29
2022-07-30T08:43:38.287Z,73.54
2022-07-30T08:46:13.811Z,73.09
2022-07-30T08:51:23.446Z,72.23
2022-07-30T08:54:10.343Z,72.27
2022-07-30T08:56:40.456Z,72.12
2022-07-30T08:59:08.766Z,72.36
2022-07-30T09:01:36.856Z,72.50
2022-07-30T09:06:34.129Z,73.16
2022-07-30T09:09:04.921Z,73.35
2022-07-30T09:11:35.128Z,73.51
2022-07-30T09:14:11.540Z,73.44
2022-07-30T09:16:39.940Z,73.66
2022-07-30T09:19:16.565Z,73.47
2022-07-30T09:21:57.014Z,73.66
2022-07-30T09:24:43.853Z,73.53
2022-07-30T09:27:45.762Z,74.13
2022-07-30T09:30:53.689Z,74.00
2022-07-30T09:33:42.505Z,74.23
2022-07-30T09:36:34.432Z,74.34
2022-07-30T09:39:36.215Z,74.19
2022-07-30T09:42:21.099Z,73.89
2022-07-30T09:44:49.946Z,73.65
2022-07-30T09:47:34.377Z,73.06
2022-07-30T09:50:08.634Z,73.12
2022-07-30T09:52:43.982Z,73.10
2022-07-30T09:55:13.827Z,73.15
2022-07-30T09:57:57.713Z,73.41
2022-07-30T10:00:29.776Z,73.13
2022-07-30T10:03:21.528Z,73.29
2022-07-30T10:06:33.966Z,73.20
2022-07-30T10:09:13.852Z,73.47
2022-07-30T10:11:49.139Z,73.76
2022-07-30T10:14:18.661Z,73.78
2022-07-30T10:17:00.359Z,73.81
2022-07-30T10:19:40.333Z,73.98
2022-07-30T10:22:29.415Z,74.63
2022-07-30T10:25:19.036Z,75.23
2022-07-30T10:28:07.951Z,75.80
2022-07-30T10:30:36.455Z,75.54
2022-07-30T10:33:05.443Z,75.51
2022-07-30T10:35:38.342Z,76.13
2022-07-30T10:38:13.693Z,76.75
2022-07-30T10:40:51.356Z,77.61
2022-07-30T10:43:53.335Z,77.87
2022-07-30T10:46:33.820Z,76.51
2022-07-30T10:49:12.568Z,75.63
2022-07-30T10:51:51.412Z,74.17
2022-07-30T10:54:44.513Z,73.01
2022-07-30T10:57:22.819Z,71.49
2022-07-30T11:00:15.454Z,71.02
2022-07-30T11:03:40.626Z,71.68
2022-07-30T11:06:29.353Z,72.02
2022-07-30T11:08:58.732Z,72.75
2022-07-30T11:12:01.584Z,72.65
2022-07-30T11:15:06.864Z,72.80
2022-07-30T11:18:01.170Z,72.39
2022-07-30T11:20:29.851Z,71.79
2022-07-30T11:23:10.524Z,71.37
2022-07-30T11:25:51.787Z,70.34
2022-07-30T11:28:37.358Z,70.11
2022-07-30T11:31:30.571Z,69.58
2022-07-30T11:34:30.758Z,69.45
2022-07-30T11:37:18.763Z,69.05
2022-07-30T11:40:11.173Z,68.31
2022-07-30T11:42:42.656Z,68.41
2022-07-30T11:45:34.878Z,67.84
2022-07-30T11:48:02.829Z,67.50
2022-07-30T11:50:33.474Z,66.94
2022-07-30T11:53:03.047Z,67.13
2022-07-30T11:55:33.348Z,67.23
2022-07-30T11:58:06.026Z,67.09
2022-07-30T12:00:39.658Z,66.01
2022-07-30T12:03:15.669Z,65.63
2022-07-30T12:05:45.652Z,65.15
2022-07-30T12:08:36.029Z,65.12
2022-07-30T12:11:04.539Z,65.14
2022-07-30T12:13:43.989Z,64.92
2022-07-30T12:16:14.058Z,63.90
2022-07-30T12:18:42.001Z,64.59
2022-07-30T12:21:12.043Z,64.93
2022-07-30T12:23:41.921Z,65.12
2022-07-30T12:26:10.656Z,64.44
2022-07-30T12:28:40.085Z,64.80
2022-07-30T12:31:08.056Z,65.28
2022-07-30T12:33:39.418Z,65.45
2022-07-30T12:36:10.449Z,65.48
2022-07-30T12:38:45.693Z,65.40
2022-07-30T12:41:13.669Z,64.71
2022-07-30T12:43:48.705Z,63.73
2022-07-30T12:46:18.315Z,64.35
2022-07-30T12:48:57.073Z,65.01
2022-07-30T12:51:28.920Z,64.82
2022-07-30T12:53:58.335Z,64.81
2022-07-30T12:56:27.970Z,64.89
2022-07-30T12:58:59.633Z,64.59
2022-07-30T13:01:40.910Z,65.14
2022-07-30T13:04:09.600Z,64.71
2022-07-30T13:06:38.053Z,64.27
2022-07-30T13:09:06.458Z,65.13
2022-07-30T13:11:49.010Z,64.94
2022-07-30T13:14:19.200Z,64.68
2022-07-30T13:16:54.994Z,64.82
2022-07-30T13:19:23.016Z,64.98
2022-07-30T13:21:51.266Z,64.22
2022-07-30T13:24:20.414Z,63.92
2022-07-30T13:26:50.597Z,63.04
2022-07-30T13:29:20.295Z,62.75
2022-07-30T13:31:48.151Z,62.50
2022-07-30T13:34:16.213Z,62.20
2022-07-30T13:36:44.784Z,61.38
2022-07-30T13:39:13.185Z,60.95
2022-07-30T13:41:41.970Z,60.30
2022-07-30T13:44:09.944Z,59.99
2022-07-30T13:46:41.319Z,59.24
2022-07-30T13:49:10.681Z,58.58
2022-07-30T13:51:38.967Z,57.79
2022-07-30T13:54:07.359Z,57.65
2022-07-30T13:56:40.757Z,56.84
2022-07-30T13:59:09.398Z,57.39
2022-07-30T14:01:38.076Z,56.81
2022-07-30T14:04:08.505Z,57.17
2022-07-30T14:06:36.437Z,57.42
2022-07-30T14:09:04.817Z,57.66
2022-07-30T14:11:33.197Z,58.11
2022-07-30T14:14:01.212Z,58.13
2022-07-30T14:16:44.830Z,57.68
2022-07-30T14:19:23.386Z,58.01
2022-07-30T14:21:53.554Z,58.07
2022-07-30T14:24:22.040Z,57.96
2022-07-30T14:26:54.420Z,57.89
2022-07-30T14:29:26.079Z,57.93
2022-07-30T14:31:54.402Z,58.62
2022-07-30T14:34:24.124Z,58.60
2022-07-30T14:36:52.079Z,58.28
2022-07-30T14:39:20.874Z,57.98
2022-07-30T14:41:53.586Z,58.04
2022-07-30T14:44:24.037Z,58.44
2022-07-30T14:46:52.932Z,57.93
2022-07-30T14:49:24.181Z,57.30
2022-07-30T14:51:53.264Z,57.38
2022-07-30T14:54:21.615Z,57.71
2022-07-30T14:56:52.556Z,57.91
2022-07-30T14:59:23.032Z,57.47
2022-07-30T15:01:52.467Z,57.22
2022-07-30T15:04:20.606Z,56.48
2022-07-30T15:06:50.162Z,57.35
2022-07-30T15:09:19.680Z,57.78
2022-07-30T15:12:09.064Z,57.17
2022-07-30T15:14:35.542Z,56.97
2022-07-30T15:17:06.006Z,56.66
2022-07-30T15:19:34.173Z,56.58
2022-07-30T15:22:04.153Z,56.88
2022-07-30T15:24:32.945Z,57.22
2022-07-30T15:27:01.373Z,56.52
2022-07-30T15:29:30.888Z,55.98
2022-07-30T15:32:01.020Z,55.28
2022-07-30T15:34:34.019Z,54.68
2022-07-30T15:37:04.117Z,54.65
2022-07-30T15:39:33.861Z,55.67
2022-07-30T15:42:02.618Z,55.49
2022-07-30T15:44:30.892Z,57.00
2022-07-30T15:46:58.965Z,56.61
2022-07-30T15:49:27.878Z,56.94
2022-07-30T15:51:56.945Z,56.79
2022-07-30T15:54:26.832Z,55.99
2022-07-30T15:57:00.951Z,56.82
2022-07-30T15:59:30.718Z,57.36
2022-07-30T16:01:59.267Z,58.27
2022-07-30T16:04:31.829Z,59.02
2022-07-30T16:07:00.818Z,60.19
2022-07-30T16:09:30.426Z,61.41
2022-07-30T16:11:58.487Z,61.90
2022-07-30T16:14:27.083Z,62.35
2022-07-30T16:16:55.474Z,62.39
2022-07-30T16:19:23.590Z,62.48
2022-07-30T16:21:51.677Z,62.88
2022-07-30T16:24:19.663Z,63.28
2022-07-30T16:26:49.158Z,63.75
2022-07-30T16:29:17.824Z,63.85
2022-07-30T16:31:45.781Z,63.94
2022-07-30T16:34:13.795Z,64.27
2022-07-30T16:36:41.769Z,64.79
2022-07-30T16:39:10.138Z,65.26
2022-07-30T16:41:38.416Z,65.73
2022-07-30T16:44:07.646Z,66.35
2022-07-30T16:46:36.953Z,66.56
2022-07-30T16:49:05.027Z,66.81
2022-07-30T16:51:33.260Z,66.63
2022-07-30T16:54:01.176Z,66.46
2022-07-30T16:56:29.096Z,67.09
2022-07-30T16:58:57.090Z,67.31
2022-07-30T17:01:26.700Z,67.41
2022-07-30T17:03:54.741Z,67.50
2022-07-30T17:06:22.682Z,67.18
2022-07-30T17:08:50.666Z,67.26
2022-07-30T17:11:47.502Z,67.04
2022-07-30T17:14:07.476Z,67.06
2022-07-30T17:16:36.728Z,66.91
2022-07-30T17:19:09.259Z,66.89
2022-07-30T17:21:38.242Z,67.02
2022-07-30T17:24:11.217Z,66.89
2022-07-30T17:26:41.807Z,66.79
2022-07-30T17:29:13.908Z,66.65
2022-07-30T17:31:44.581Z,66.44
2022-07-30T17:34:14.880Z,66.54
2022-07-30T17:36:44.398Z,66.47
2022-07-30T17:40:04.330Z,66.89
2022-07-30T17:42:09.542Z,66.93
2022-07-30T17:44:37.869Z,68.38
2022-07-30T17:47:12.368Z,70.20
2022-07-30T17:49:42.684Z,71.49
2022-07-30T17:52:10.674Z,71.90
2022-07-30T17:54:38.641Z,72.27
2022-07-30T17:57:07.106Z,72.67
2022-07-30T17:59:35.101Z,72.32
2022-07-30T18:02:04.531Z,72.04
2022-07-30T18:04:34.896Z,72.32
2022-07-30T18:07:03.034Z,72.06
2022-07-30T18:09:38.645Z,72.46
2022-07-30T18:12:08.840Z,72.24
2022-07-30T18:14:37.316Z,72.19
2022-07-30T18:17:05.583Z,71.82
2022-07-30T18:19:34.934Z,71.14
2022-07-30T18:22:04.565Z,71.09
2022-07-30T18:24:32.777Z,70.97
2022-07-30T18:27:00.865Z,70.71
2022-07-30T18:29:28.761Z,70.47
2022-07-30T18:31:56.860Z,70.48
2022-07-30T18:34:24.780Z,70.48
2022-07-30T18:36:54.049Z,70.84
2022-07-30T18:39:21.994Z,70.92
2022-07-30T18:41:49.948Z,71.36
2022-07-30T18:44:17.906Z,71.13
2022-07-30T18:46:46.004Z,70.98
2022-07-30T18:49:35.540Z,70.83
2022-07-30T18:52:05.015Z,71.04
2022-07-30T18:54:33.167Z,70.53
2022-07-30T18:57:01.233Z,71.02
2022-07-30T18:59:29.108Z,70.72
2022-07-30T19:01:57.038Z,70.94
2022-07-30T19:04:24.940Z,70.55
2022-07-30T19:06:52.893Z,69.77
2022-07-30T19:09:22.228Z,69.79
2022-07-30T19:11:50.242Z,69.65
2022-07-30T19:14:18.286Z,69.71
2022-07-30T19:16:46.535Z,69.67
2022-07-30T19:19:15.298Z,69.72
2022-07-30T19:21:43.618Z,69.46
2022-07-30T19:24:11.654Z,69.70
2022-07-30T19:26:40.998Z,69.63
2022-07-30T19:29:09.917Z,69.50
2022-07-30T19:31:37.902Z,69.47
2022-07-30T19:34:07.074Z,69.31
2022-07-30T19:36:35.056Z,69.53
2022-07-30T19:39:06.832Z,69.52
2022-07-30T19:41:40.540Z,69.67
2022-07-30T19:44:11.297Z,69.45
2022-07-30T19:46:41.254Z,69.27
2022-07-30T19:49:10.755Z,68.96
2022-07-30T19:52:10.163Z,68.93
2022-07-30T19:54:26.888Z,68.72
2022-07-30T19:56:54.825Z,68.57
2022-07-30T19:59:45.036Z,68.34
2022-07-30T20:02:13.685Z,67.98
2022-07-30T20:04:43.734Z,67.90
2022-07-30T20:07:11.949Z,67.37
2022-07-30T20:09:42.957Z,67.18
2022-07-30T20:12:11.326Z,67.17
2022-07-30T20:14:41.761Z,67.08
2022-07-30T20:17:11.703Z,66.99
2022-07-30T20:19:47.548Z,67.03
2022-07-30T20:22:16.516Z,66.99
2022-07-30T20:24:45.277Z,66.85
2022-07-30T20:27:35.922Z,66.71
2022-07-30T20:30:03.145Z,66.98
2022-07-30T20:32:31.119Z,66.80
2022-07-30T20:34:59.598Z,67.00
2022-07-30T20:37:27.916Z,66.86
2022-07-30T20:39:56.120Z,67.03
2022-07-30T20:42:24.535Z,66.96
2022-07-30T20:44:56.723Z,66.80
2022-07-30T20:47:34.224Z,66.85
2022-07-30T20:50:02.690Z,66.95
2022-07-30T20:52:31.104Z,67.11
2022-07-30T20:54:59.145Z,67.23
2022-07-30T20:57:57.063Z,67.28
2022-07-30T21:00:18.659Z,67.52
2022-07-30T21:02:49.536Z,67.51
2022-07-30T21:05:20.024Z,67.57
2022-07-30T21:07:48.372Z,67.46
2022-07-30T21:10:23.364Z,66.93
2022-07-30T21:12:53.293Z,66.93
2022-07-30T21:15:26.828Z,66.57
2022-07-30T21:18:02.338Z,66.19
2022-07-30T21:20:32.069Z,66.13
2022-07-30T21:23:10.170Z,66.34
2022-07-30T21:26:00.135Z,65.87
2022-07-30T21:28:29.235Z,65.82
2022-07-30T21:30:57.630Z,65.67
2022-07-30T21:33:31.288Z,65.57
2022-07-30T21:35:59.895Z,65.57
2022-07-30T21:38:28.676Z,66.00
2022-07-30T21:40:58.514Z,65.75
2022-07-30T21:43:29.533Z,65.71
2022-07-30T21:45:58.430Z,65.66
2022-07-30T21:48:28.101Z,65.62
2022-07-30T21:50:57.633Z,65.03
2022-07-30T21:53:29.743Z,64.85
2022-07-30T21:56:13.187Z,64.64
2022-07-30T21:58:41.778Z,64.53
2022-07-30T22:01:17.295Z,64.49
2022-07-30T22:04:08.000Z,64.34
2022-07-30T22:06:38.298Z,64.28
2022-07-30T22:09:24.338Z,63.99
2022-07-30T22:11:56.154Z,63.65
2022-07-30T22:14:25.684Z,63.76
2022-07-30T22:16:53.850Z,63.86
2022-07-30T22:19:25.898Z,63.80
2022-07-30T22:21:54.013Z,63.69
2022-07-30T22:24:29.967Z,63.64
2022-07-30T22:27:01.536Z,63.64
2022-07-30T22:29:33.811Z,63.92
2022-07-30T22:32:06.269Z,63.93
2022-07-30T22:34:37.330Z,64.24
2022-07-30T22:37:09.161Z,64.13
2022-07-30T22:39:52.190Z,64.18
2022-07-30T22:42:24.469Z,64.10
2022-07-30T22:44:54.699Z,64.03
2022-07-30T22:47:51.461Z,64.01
2022-07-30T22:50:14.857Z,64.25
2022-07-30T22:52:55.405Z,64.30
2022-07-30T22:55:33.244Z,64.62
2022-07-30T22:58:01.341Z,64.36
2022-07-30T23:00:29.294Z,64.64
2022-07-30T23:02:58.382Z,64.89
2022-07-30T23:05:27.902Z,65.02
2022-07-30T23:07:57.444Z,65.54
2022-07-30T23:10:28.009Z,65.51
2022-07-30T23:12:56.450Z,65.72
2022-07-30T23:15:24.562Z,65.77
2022-07-30T23:17:53.124Z,66.20
2022-07-30T23:20:22.292Z,66.40
2022-07-30T23:22:52.351Z,66.39
2022-07-30T23:25:20.515Z,67.76
2022-07-30T23:27:48.405Z,68.13
2022-07-30T23:30:16.676Z,68.14
2022-07-30T23:32:44.894Z,68.46
2022-07-30T23:35:13.198Z,68.47
2022-07-30T23:37:49.149Z,68.27
2022-07-30T23:40:19.570Z,67.92
2022-07-30T23:42:49.948Z,68.12
2022-07-30T23:45:18.158Z,68.17
2022-07-30T23:48:01.932Z,68.34
2022-07-30T23:50:32.613Z,68.17
2022-07-30T23:53:01.286Z,67.89
2022-07-30T23:55:31.410Z,68.11
2022-07-30T23:58:00.109Z,68.05
